Time;durP1;ratioP1;P1;durP2;ratioP2;P2;SDS_P1;SDS_P2;PMS_P1;PMS_P2;Temp;Humidity;BMP_temperature;BMP_pressure;BME280_temperature;BME280_humidity;BME280_pressure;Samples;Min_cycle;Max_cycle;Signal;HPM_P1;HPM_P2
2021/01/31 09:22:43;;;;;;;14.40;7.53;;;;;;;-0.28;74.66;98116.95;1761159;77;23347;-67
2021/01/31 09:25:20;;;;;;;10.28;6.95;;;;;;;-0.18;73.73;98116.30;1796973;78;23122;-69
2021/01/31 09:27:59;;;;;;;11.57;6.53;;;;;;;-0.22;73.74;98125.36;1770421;80;21135;-70
2021/01/31 09:30:27;;;;;;;11.75;6.60;;;;;;;-0.11;73.37;98121.56;1765442;80;21187;-70
2021/01/31 09:33:13;;;;;;;11.40;6.85;;;;;;;-0.04;72.93;98134.80;1774517;80;21616;-68
2021/01/31 09:35:40;;;;;;;10.58;6.75;;;;;;;0.08;72.67;98145.55;1771973;80;21273;-72
2021/01/31 09:38:24;;;;;;;9.58;6.12;;;;;;;0.25;72.08;98150.62;1772204;80;21300;-62
2021/01/31 09:40:59;;;;;;;12.55;6.62;;;;;;;0.36;70.55;98158.73;1775439;80;21155;-61
2021/01/31 09:43:30;;;;;;;8.03;5.28;;;;;;;0.38;69.81;98151.52;1771731;80;21142;-61
2021/01/31 09:46:00;;;;;;;10.20;5.78;;;;;;;0.45;69.81;98158.13;1777159;80;21123;-60
2021/01/31 09:48:31;;;;;;;8.93;5.37;;;;;;;0.50;69.87;98162.67;1779815;80;21549;-64
2021/01/31 09:51:03;;;;;;;8.58;5.17;;;;;;;0.53;69.04;98163.31;1780395;80;21260;-62
2021/01/31 09:53:40;;;;;;;9.45;5.20;;;;;;;0.60;69.40;98164.61;1762812;80;21640;-62
2021/01/31 09:56:12;;;;;;;8.38;5.10;;;;;;;0.66;67.61;98169.97;1777526;80;21262;-62
2021/01/31 09:58:47;;;;;;;8.73;5.40;;;;;;;0.63;67.38;98172.84;1771633;80;21146;-63
2021/01/31 10:01:26;;;;;;;8.45;5.40;;;;;;;0.65;67.58;98174.45;1769602;80;21134;-63
2021/01/31 10:04:06;;;;;;;11.50;6.25;;;;;;;0.73;67.37;98171.28;1766263;80;21178;-61
2021/01/31 10:06:44;;;;;;;9.25;5.50;;;;;;;0.74;67.01;98172.99;1779957;80;21135;-64
2021/01/31 10:09:12;;;;;;;8.78;4.60;;;;;;;0.72;65.97;98180.20;1782020;80;21170;-62
2021/01/31 10:11:47;;;;;;;8.48;5.00;;;;;;;0.64;64.90;98178.03;1770732;80;21289;-62
2021/01/31 10:14:43;;;;;;;8.98;4.65;;;;;;;0.57;64.59;98190.45;1770886;80;21138;-63
2021/01/31 10:17:22;;;;;;;8.15;4.50;;;;;;;0.63;65.21;98186.10;1775558;80;21135;-61
2021/01/31 10:20:28;;;;;;;6.97;4.28;;;;;;;0.74;64.59;98184.92;1780237;80;21162;-61
2021/01/31 10:23:13;;;;;;;9.18;5.03;;;;;;;0.74;64.27;98181.77;1733963;81;21695;-62
2021/01/31 10:25:44;;;;;;;10.80;5.95;;;;;;;0.73;64.05;98191.16;1720975;82;21174;-62
2021/01/31 10:28:13;;;;;;;7.35;4.55;;;;;;;0.74;63.67;98187.58;1694363;83;21138;-62
2021/01/31 10:30:50;;;;;;;9.30;5.40;;;;;;;0.84;64.65;98193.96;1727653;82;21214;-61
2021/01/31 10:33:44;;;;;;;8.83;4.65;;;;;;;1.07;64.30;98197.75;1711658;82;21174;-60
2021/01/31 10:36:29;;;;;;;7.87;4.43;;;;;;;1.27;63.72;98195.91;1712080;83;21312;-62
2021/01/31 10:39:18;;;;;;;9.03;4.45;;;;;;;1.27;62.63;98198.56;1725644;83;21166;-62
2021/01/31 10:41:46;;;;;;;7.78;4.70;;;;;;;1.16;63.13;98203.27;1713803;83;21176;-62
2021/01/31 10:44:26;;;;;;;6.60;3.87;;;;;;;1.17;62.35;98220.91;1716160;83;21162;-62
2021/01/31 10:46:54;;;;;;;10.08;4.60;;;;;;;1.20;62.47;98215.38;1716916;83;21187;-61
2021/01/31 10:49:22;;;;;;;7.22;4.50;;;;;;;1.22;62.33;98213.97;1716862;83;21171;-62
2021/01/31 10:51:50;;;;;;;9.53;4.37;;;;;;;1.22;62.73;98221.42;1724876;83;21277;-63
2021/01/31 10:54:19;;;;;;;7.40;4.70;;;;;;;1.28;62.44;98226.34;1711393;82;21402;-62
2021/01/31 10:56:47;;;;;;;6.53;4.35;;;;;;;1.35;61.90;98226.78;1728437;82;21170;-62
2021/01/31 10:59:15;;;;;;;6.62;4.10;;;;;;;1.27;60.92;98229.94;1729702;83;21196;-64
2021/01/31 11:01:45;;;;;;;7.72;4.25;;;;;;;1.15;61.29;98232.10;1730666;83;21190;-62
2021/01/31 11:04:15;;;;;;;8.93;3.90;;;;;;;1.15;61.79;98241.39;1719526;82;21731;-62
2021/01/31 11:06:44;;;;;;;7.50;3.60;;;;;;;1.15;61.04;98241.39;1719437;83;21216;-62
2021/01/31 11:09:15;;;;;;;8.48;3.95;;;;;;;1.16;60.86;98248.37;1726668;82;21218;-61
2021/01/31 11:11:43;;;;;;;8.83;4.30;;;;;;;1.22;61.31;98251.95;1718737;82;21363;-62
2021/01/31 11:14:11;;;;;;;4.97;3.42;;;;;;;1.25;60.61;98237.62;1722302;83;21148;-63
2021/01/31 11:16:40;;;;;;;12.15;4.10;;;;;;;1.25;60.85;98252.22;1717352;82;21195;-64
2021/01/31 11:19:09;;;;;;;6.53;4.10;;;;;;;1.23;60.77;98247.50;1730657;83;21163;-62
2021/01/31 11:21:38;;;;;;;6.67;4.37;;;;;;;1.27;60.71;98248.98;1735631;82;21150;-62
2021/01/31 11:24:08;;;;;;;7.92;4.55;;;;;;;1.27;60.53;98259.13;1715197;83;21190;-62
2021/01/31 11:26:36;;;;;;;9.55;4.60;;;;;;;1.21;60.03;98262.20;1718300;83;21187;-62
2021/01/31 11:29:04;;;;;;;7.05;3.58;;;;;;;1.10;60.14;98264.72;1750700;81;21277;-62
2021/01/31 11:31:32;;;;;;;6.70;3.75;;;;;;;1.07;60.21;98268.88;1749924;82;21115;-62
2021/01/31 11:34:00;;;;;;;7.05;3.45;;;;;;;1.03;60.54;98266.06;1752642;81;21159;-61
2021/01/31 11:36:28;;;;;;;10.03;5.25;;;;;;;1.02;60.55;98269.69;1751613;81;21139;-63
2021/01/31 11:38:56;;;;;;;6.83;3.90;;;;;;;1.03;60.76;98267.39;1747393;82;21139;-62
2021/01/31 11:41:27;;;;;;;5.03;3.45;;;;;;;1.03;60.71;98279.33;1755110;82;21151;-63
2021/01/31 11:43:55;;;;;;;7.85;4.40;;;;;;;0.99;60.63;98281.81;1750880;82;21589;-61
2021/01/31 11:46:26;;;;;;;5.87;3.45;;;;;;;0.97;60.68;98279.73;1718878;82;21187;-61
2021/01/31 11:48:54;;;;;;;6.95;4.53;;;;;;;0.94;60.91;98275.12;1747228;81;21159;-63
2021/01/31 11:51:22;;;;;;;6.42;4.03;;;;;;;0.94;60.71;98274.61;1719147;82;21632;-61
2021/01/31 11:53:52;;;;;;;8.68;4.12;;;;;;;0.90;60.36;98276.23;1748597;82;21632;-63
2021/01/31 11:56:20;;;;;;;7.65;4.30;;;;;;;0.81;60.72;98276.86;1751665;82;21167;-63
2021/01/31 11:58:48;;;;;;;8.55;4.28;;;;;;;0.76;60.99;98280.63;1748029;82;21140;-62
2021/01/31 12:01:16;;;;;;;7.10;3.90;;;;;;;0.76;61.53;98283.78;1748518;82;21461;-61
2021/01/31 12:03:45;;;;;;;7.50;4.12;;;;;;;0.75;61.03;98283.39;1751346;82;21124;-61
2021/01/31 12:06:13;;;;;;;6.72;3.98;;;;;;;0.74;61.69;98279.06;1750154;82;21195;-62
2021/01/31 12:08:41;;;;;;;7.87;4.60;;;;;;;0.84;61.37;98276.17;1749747;81;21171;-63
2021/01/31 12:11:10;;;;;;;8.43;4.62;;;;;;;0.86;60.47;98279.58;1747035;82;21287;-62
2021/01/31 12:13:39;;;;;;;8.78;4.05;;;;;;;0.90;61.30;98285.05;1747344;82;21433;-62
2021/01/31 12:16:06;;;;;;;6.47;4.33;;;;;;;1.01;60.17;98279.05;1753089;82;21135;-61
2021/01/31 12:18:34;;;;;;;8.35;4.20;;;;;;;1.07;60.56;98288.78;1750922;82;21132;-62
2021/01/31 12:21:03;;;;;;;8.45;3.08;;;;;;;1.24;60.77;98291.67;1747675;81;21598;-65
2021/01/31 12:23:31;;;;;;;7.97;3.45;;;;;;;1.47;59.99;98295.82;1738290;82;21132;-63
2021/01/31 12:25:59;;;;;;;6.50;3.22;;;;;;;1.66;58.43;98305.22;1770195;80;21132;-62
2021/01/31 12:28:27;;;;;;;6.67;3.83;;;;;;;1.78;57.44;98297.26;1764311;80;21183;-61
2021/01/31 12:30:55;;;;;;;6.75;3.50;;;;;;;1.92;57.32;98304.30;1779151;80;21585;-62
2021/01/31 12:33:24;;;;;;;6.33;3.10;;;;;;;1.98;57.28;98307.38;1745927;82;21199;-61
2021/01/31 12:35:52;;;;;;;4.95;2.95;;;;;;;1.98;56.07;98311.84;1717333;83;21172;-61
2021/01/31 12:38:19;;;;;;;6.15;3.40;;;;;;;1.84;56.24;98322.55;1782768;80;21195;-62
2021/01/31 12:40:47;;;;;;;10.38;3.80;;;;;;;1.75;55.98;98320.53;1775061;80;21217;-62
2021/01/31 12:43:15;;;;;;;8.95;4.62;;;;;;;1.66;56.14;98322.48;1778629;80;21143;-63
2021/01/31 12:45:43;;;;;;;8.18;3.85;;;;;;;1.53;57.03;98332.58;1779703;80;21155;-63
2021/01/31 12:48:11;;;;;;;5.65;3.37;;;;;;;1.53;56.47;98336.20;1770096;80;21179;-62
2021/01/31 12:50:41;;;;;;;8.48;3.47;;;;;;;1.48;57.12;98340.02;1742032;80;21159;-62
2021/01/31 12:53:10;;;;;;;6.95;3.60;;;;;;;1.41;57.29;98343.16;1768694;80;21131;-64
2021/01/31 12:55:38;;;;;;;7.53;3.67;;;;;;;1.39;57.54;98349.91;1779785;80;21562;-62
2021/01/31 12:58:06;;;;;;;4.50;2.80;;;;;;;1.31;57.25;98348.22;1784900;80;21148;-62
2021/01/31 13:00:34;;;;;;;5.45;3.30;;;;;;;1.15;57.91;98352.84;1782234;80;21146;-61
2021/01/31 13:03:05;;;;;;;6.17;2.87;;;;;;;1.00;58.05;98355.16;1749960;82;21732;-62
2021/01/31 13:05:32;;;;;;;4.47;2.55;;;;;;;0.82;57.29;98360.30;1783689;80;21126;-61
2021/01/31 13:08:03;;;;;;;5.90;2.50;;;;;;;0.63;56.95;98365.88;1782306;80;21135;-62
2021/01/31 13:10:32;;;;;;;4.45;2.40;;;;;;;0.49;56.53;98373.00;1771667;80;21174;-60
2021/01/31 13:13:00;;;;;;;4.22;2.37;;;;;;;0.32;57.29;98383.80;1779183;80;21307;-61
2021/01/31 13:15:28;;;;;;;6.10;2.83;;;;;;;0.24;58.05;98392.19;1769512;80;21543;-61
2021/01/31 13:17:57;;;;;;;5.25;2.83;;;;;;;0.19;58.32;98390.31;1774044;80;21127;-61
2021/01/31 13:20:26;;;;;;;5.17;2.80;;;;;;;0.13;58.34;98401.75;1782564;80;21273;-61
2021/01/31 13:22:55;;;;;;;6.67;2.92;;;;;;;0.10;58.55;98411.20;1771606;80;21150;-61
2021/01/31 13:25:26;;;;;;;4.72;2.72;;;;;;;0.11;58.83;98410.27;1767051;80;21162;-61
2021/01/31 13:27:57;;;;;;;5.22;2.83;;;;;;;0.15;59.03;98411.32;1738403;82;21241;-61
2021/01/31 13:30:24;;;;;;;6.17;2.77;;;;;;;0.20;59.23;98412.37;1760419;81;21277;-62
2021/01/31 13:32:52;;;;;;;6.58;2.80;;;;;;;0.24;58.52;98412.56;1757456;81;21147;-60
2021/01/31 13:35:23;;;;;;;7.05;3.67;;;;;;;0.23;58.46;98410.84;1753346;81;21273;-62
2021/01/31 13:37:50;;;;;;;5.70;2.83;;;;;;;0.18;58.74;98419.06;1763049;81;21285;-61
2021/01/31 13:40:18;;;;;;;5.22;2.75;;;;;;;0.16;58.94;98429.36;1731960;82;21139;-62
2021/01/31 13:42:46;;;;;;;6.03;2.85;;;;;;;0.14;59.38;98428.14;1775709;80;21131;-61
2021/01/31 13:45:17;;;;;;;4.75;2.85;;;;;;;0.17;59.40;98425.79;1725459;82;21594;-62
2021/01/31 13:47:45;;;;;;;6.58;3.52;;;;;;;0.15;59.50;98427.21;1756955;81;21876;-60
2021/01/31 13:50:18;;;;;;;5.80;3.00;;;;;;;0.12;58.78;98437.12;1764959;81;21179;-61
2021/01/31 13:52:46;;;;;;;4.92;3.00;;;;;;;0.02;58.77;98439.48;1749794;81;21289;-62
2021/01/31 13:55:15;;;;;;;6.00;2.37;;;;;;;-0.07;58.15;98442.16;1765109;81;21133;-63
2021/01/31 13:57:43;;;;;;;5.53;3.10;;;;;;;-0.15;58.21;98440.91;1758957;81;21163;-63
2021/01/31 14:00:13;;;;;;;5.77;3.00;;;;;;;-0.19;59.26;98444.22;1755734;81;21277;-62
2021/01/31 14:02:41;;;;;;;6.45;2.65;;;;;;;-0.24;58.80;98456.86;1772755;80;21573;-62
2021/01/31 14:05:10;;;;;;;5.15;2.50;;;;;;;-0.31;58.67;98452.02;1770402;81;21116;-62
2021/01/31 14:07:39;;;;;;;5.12;2.90;;;;;;;-0.37;59.17;98454.53;1763757;81;21147;-63
2021/01/31 14:10:09;;;;;;;6.63;3.77;;;;;;;-0.39;59.85;98455.09;1753748;81;21203;-62
2021/01/31 14:12:41;;;;;;;4.95;2.92;;;;;;;-0.41;60.13;98458.30;1763372;80;21123;-62
2021/01/31 14:15:11;;;;;;;5.70;3.17;;;;;;;-0.42;60.37;98447.34;1769916;80;21159;-62
2021/01/31 14:17:40;;;;;;;6.50;3.03;;;;;;;-0.42;60.88;98452.64;1762842;81;21266;-62
2021/01/31 14:20:12;;;;;;;9.47;3.97;;;;;;;-0.42;61.21;98457.94;1760638;80;21146;-61
2021/01/31 14:22:40;;;;;;;8.93;4.87;;;;;;;-0.40;61.50;98457.84;1761042;81;21325;-61
2021/01/31 14:25:09;;;;;;;14.37;6.80;;;;;;;-0.41;62.00;98464.92;1766495;80;21204;-63
2021/01/31 14:27:37;;;;;;;16.23;7.00;;;;;;;-0.42;61.98;98460.58;1748045;82;21166;-62
2021/01/31 14:30:07;;;;;;;18.57;8.35;;;;;;;-0.46;61.91;98461.67;1708515;83;21344;-62
2021/01/31 14:32:35;;;;;;;19.33;9.27;;;;;;;-0.50;62.21;98461.47;1736997;82;21122;-62
2021/01/31 14:35:05;;;;;;;19.53;9.23;;;;;;;-0.54;62.85;98462.58;1740556;80;21185;-61
2021/01/31 14:37:36;;;;;;;21.07;8.03;;;;;;;-0.56;63.01;98464.46;1736239;80;21251;-59
2021/01/31 14:40:06;;;;;;;24.20;10.40;;;;;;;-0.58;63.24;98464.16;1743946;82;21262;-64
2021/01/31 14:42:34;;;;;;;20.33;9.07;;;;;;;-0.63;63.56;98473.67;1739026;82;21335;-62
2021/01/31 14:45:04;;;;;;;20.10;9.00;;;;;;;-0.69;63.81;98476.67;1715539;82;21274;-64
2021/01/31 14:47:32;;;;;;;17.93;8.17;;;;;;;-0.73;64.13;98475.14;1735097;82;21164;-60
2021/01/31 14:49:59;;;;;;;15.53;8.20;;;;;;;-0.76;64.58;98477.94;1741909;80;21349;-61
2021/01/31 14:52:27;;;;;;;18.47;9.07;;;;;;;-0.80;64.85;98481.23;1743257;82;21142;-59
2021/01/31 14:55:04;;;;;;;24.23;10.03;;;;;;;-0.84;65.53;98485.45;1736888;80;21106;-64
2021/01/31 14:57:32;;;;;;;20.43;9.87;;;;;;;-0.86;65.84;98484.69;1694424;83;21663;-61
2021/01/31 14:59:59;;;;;;;19.67;8.37;;;;;;;-0.87;66.05;98486.93;1702141;82;21793;-61
2021/01/31 15:02:27;;;;;;;28.97;12.53;;;;;;;-0.87;66.43;98488.25;1680929;83;21203;-63
2021/01/31 15:04:56;;;;;;;26.30;11.83;;;;;;;-0.89;66.80;98504.67;1698539;83;21344;-61
2021/01/31 15:07:24;;;;;;;26.07;11.67;;;;;;;-0.94;67.05;98493.02;1705141;83;21189;-59
2021/01/31 15:09:52;;;;;;;33.80;12.43;;;;;;;-0.96;67.22;98496.22;1708005;83;21248;-62
2021/01/31 15:12:20;;;;;;;30.20;13.43;;;;;;;-0.99;67.67;98493.76;1700025;83;21202;-62
2021/01/31 15:14:49;;;;;;;27.93;11.90;;;;;;;-1.01;67.95;98506.22;1702088;83;21296;-58
2021/01/31 15:17:16;;;;;;;42.77;18.57;;;;;;;-1.02;68.04;98500.52;1730777;82;21263;-60
2021/01/31 15:19:45;;;;;;;57.80;21.87;;;;;;;-1.04;68.20;98506.83;1745092;82;21165;-60
2021/01/31 15:22:13;;;;;;;57.00;23.10;;;;;;;-1.05;68.51;98507.28;1745985;82;21161;-58
2021/01/31 15:24:41;;;;;;;61.60;25.23;;;;;;;-1.05;68.60;98509.93;1737931;82;21149;-60
2021/01/31 15:27:10;;;;;;;85.17;32.57;;;;;;;-1.06;68.85;98512.67;1738724;80;21253;-61
2021/01/31 15:29:38;;;;;;;90.03;30.73;;;;;;;-1.08;69.12;98518.51;1746683;80;21389;-66
2021/01/31 15:32:06;;;;;;;76.03;29.77;;;;;;;-1.11;69.36;98519.98;1740767;80;21194;-59
2021/01/31 15:34:34;;;;;;;71.37;28.10;;;;;;;-1.11;69.60;98525.27;1744657;80;21169;-62
2021/01/31 15:37:03;;;;;;;48.10;20.93;;;;;;;-1.11;69.76;98523.95;1743151;80;21169;-61
2021/01/31 15:39:31;;;;;;;56.00;19.83;;;;;;;-1.11;69.83;98523.48;1742435;80;21260;-62
2021/01/31 15:41:59;;;;;;;45.97;16.70;;;;;;;-1.10;69.99;98526.99;1742311;81;21279;-59
2021/01/31 15:44:29;;;;;;;30.80;14.43;;;;;;;-1.10;70.23;98534.92;1744598;82;21210;-62
2021/01/31 15:46:58;;;;;;;28.43;13.37;;;;;;;-1.11;70.28;98543.77;1737099;81;21162;-58
2021/01/31 15:49:27;;;;;;;31.70;13.20;;;;;;;-1.14;70.54;98542.17;1735167;82;21276;-60
2021/01/31 15:51:55;;;;;;;23.63;12.10;;;;;;;-1.16;70.77;98548.47;1735761;82;21307;-63
2021/01/31 15:54:25;;;;;;;29.20;13.83;;;;;;;-1.19;70.77;98545.52;1733934;81;21129;-59
2021/01/31 15:56:53;;;;;;;29.47;13.90;;;;;;;-1.22;70.98;98546.98;1736383;82;21113;-61
2021/01/31 15:59:21;;;;;;;27.50;13.30;;;;;;;-1.21;70.99;98549.17;1739184;82;21142;-57
2021/01/31 16:01:49;;;;;;;23.80;12.37;;;;;;;-1.24;71.32;98551.50;1739654;81;21190;-62
2021/01/31 16:04:17;;;;;;;27.93;14.17;;;;;;;-1.26;71.31;98559.98;1737315;82;21332;-60
2021/01/31 16:06:52;;;;;;;26.50;13.53;;;;;;;-1.29;71.37;98557.97;1739448;82;21135;-57
2021/01/31 16:09:21;;;;;;;23.33;11.27;;;;;;;-1.29;71.34;98557.97;1743627;80;21150;-62
2021/01/31 16:11:48;;;;;;;31.80;13.27;;;;;;;-1.27;71.44;98562.71;1740238;81;21150;-60
2021/01/31 16:14:16;;;;;;;29.23;14.10;;;;;;;-1.28;71.43;98567.59;1707848;83;21543;-61
2021/01/31 16:16:47;;;;;;;36.67;15.87;;;;;;;-1.28;71.47;98574.20;1675788;85;21247;-59
2021/01/31 16:19:16;;;;;;;38.10;16.17;;;;;;;-1.27;71.62;98568.00;1674131;85;21339;-60
2021/01/31 16:21:46;;;;;;;52.93;21.00;;;;;;;-1.28;71.75;98570.23;1684995;84;21602;-59
2021/01/31 16:24:15;;;;;;;66.83;24.60;;;;;;;-1.29;71.83;98576.48;1688566;83;21591;-60
2021/01/31 16:26:42;;;;;;;69.63;28.73;;;;;;;-1.31;71.89;98580.50;1669612;84;21177;-60
2021/01/31 16:29:10;;;;;;;70.07;27.77;;;;;;;-1.30;71.91;98579.58;1697896;82;21269;-60
2021/01/31 16:31:38;;;;;;;77.10;32.03;;;;;;;-1.32;71.99;98585.88;1652378;82;21221;-60
2021/01/31 16:34:05;;;;;;;68.20;26.07;;;;;;;-1.34;72.12;98585.09;1736168;82;21566;-60
2021/01/31 16:36:33;;;;;;;57.47;23.50;;;;;;;-1.35;72.16;98588.66;1730372;82;21131;-61
2021/01/31 16:39:03;;;;;;;62.17;25.67;;;;;;;-1.35;72.19;98593.94;1725891;82;21699;-61
2021/01/31 16:41:30;;;;;;;48.03;21.20;;;;;;;-1.36;72.35;98593.57;1733195;82;21693;-60
2021/01/31 16:44:00;;;;;;;55.67;22.67;;;;;;;-1.33;72.45;98601.36;1685893;82;21171;-60
2021/01/31 16:46:28;;;;;;;51.07;21.80;;;;;;;-1.37;72.62;98605.92;1727265;82;21729;-60
2021/01/31 16:48:56;;;;;;;57.57;23.27;;;;;;;-1.38;72.68;98612.16;1703459;82;21159;-59
2021/01/31 16:51:24;;;;;;;56.60;23.23;;;;;;;-1.42;72.67;98609.25;1727351;82;21151;-59
2021/01/31 16:53:52;;;;;;;38.90;17.47;;;;;;;-1.45;72.67;98609.89;1702321;82;21282;-61
2021/01/31 16:56:20;;;;;;;44.57;19.50;;;;;;;-1.46;72.73;98614.80;1737104;82;21147;-60
2021/01/31 16:58:48;;;;;;;40.07;19.20;;;;;;;-1.50;72.90;98610.12;1727576;82;21165;-59
2021/01/31 17:01:15;;;;;;;50.73;20.43;;;;;;;-1.53;72.95;98616.41;1734329;82;21168;-58
2021/01/31 17:03:44;;;;;;;40.57;18.17;;;;;;;-1.57;72.88;98618.81;1731568;81;21199;-59
2021/01/31 17:06:12;;;;;;;43.67;18.53;;;;;;;-1.58;72.99;98614.94;1729794;81;21162;-61
2021/01/31 17:08:40;;;;;;;47.67;20.07;;;;;;;-1.62;73.14;98614.70;1727394;81;21179;-60
2021/01/31 17:11:08;;;;;;;39.27;18.33;;;;;;;-1.65;73.28;98613.06;1706551;82;21304;-66
2021/01/31 17:13:36;;;;;;;34.53;16.90;;;;;;;-1.66;73.28;98612.66;1730361;82;21241;-61
2021/01/31 17:16:06;;;;;;;40.07;19.13;;;;;;;-1.68;73.37;98614.53;1729177;82;21175;-61
2021/01/31 17:18:35;;;;;;;37.00;17.60;;;;;;;-1.70;73.41;98621.67;1731605;82;21787;-62
2021/01/31 17:21:03;;;;;;;36.43;19.00;;;;;;;-1.72;73.61;98623.99;1726593;82;21305;-63
2021/01/31 17:23:31;;;;;;;39.93;17.83;;;;;;;-1.79;73.77;98622.12;1728496;82;21195;-59
2021/01/31 17:25:59;;;;;;;35.47;17.80;;;;;;;-1.79;73.87;98628.72;1738309;81;21198;-60
2021/01/31 17:28:28;;;;;;;33.87;17.57;;;;;;;-1.79;73.96;98627.40;1756578;80;21299;-61
2021/01/31 17:30:56;;;;;;;33.40;17.27;;;;;;;-1.79;73.94;98630.04;1752114;81;21154;-60
2021/01/31 17:33:24;;;;;;;32.60;16.30;;;;;;;-1.81;73.96;98633.23;1756654;80;21186;-58
2021/01/31 17:35:53;;;;;;;35.73;17.80;;;;;;;-1.83;74.01;98636.41;1751768;80;21140;-59
2021/01/31 17:38:20;;;;;;;36.77;18.13;;;;;;;-1.87;74.10;98636.17;1758255;80;21280;-61
2021/01/31 17:40:49;;;;;;;36.60;17.60;;;;;;;-1.89;74.22;98638.03;1756907;80;21642;-62
2021/01/31 17:43:17;;;;;;;34.67;17.60;;;;;;;-1.91;74.26;98639.89;1758742;80;21566;-60
2021/01/31 17:45:45;;;;;;;33.50;18.30;;;;;;;-1.93;74.40;98637.80;1765230;80;21159;-65
2021/01/31 17:48:15;;;;;;;32.90;16.60;;;;;;;-1.94;74.51;98638.70;1758219;80;21297;-65
2021/01/31 17:50:43;;;;;;;28.60;15.00;;;;;;;-1.94;74.70;98638.70;1752042;81;21123;-61
2021/01/31 17:53:12;;;;;;;31.03;16.97;;;;;;;-1.94;74.95;98641.34;1755478;80;21186;-64
2021/01/31 17:55:40;;;;;;;30.30;16.67;;;;;;;-1.97;75.21;98640.66;1751381;81;21294;-63
2021/01/31 17:58:08;;;;;;;35.20;18.90;;;;;;;-1.97;75.37;98640.19;1752830;80;21165;-68
2021/01/31 18:00:36;;;;;;;33.30;17.10;;;;;;;-1.95;75.42;98645.39;1756691;80;21131;-61
2021/01/31 18:03:05;;;;;;;34.80;18.73;;;;;;;-1.97;75.52;98652.08;1755505;81;21168;-60
2021/01/31 18:05:34;;;;;;;36.83;17.33;;;;;;;-1.97;75.66;98649.89;1756347;81;21614;-59
2021/01/31 18:08:06;;;;;;;36.07;17.70;;;;;;;-1.97;75.79;98656.03;1753794;80;21650;-60
2021/01/31 18:10:36;;;;;;;34.03;19.03;;;;;;;-1.98;75.94;98656.09;1751592;81;21177;-59
2021/01/31 18:13:04;;;;;;;40.60;19.37;;;;;;;-2.00;76.05;98664.55;1754060;81;21312;-59
2021/01/31 18:15:32;;;;;;;35.53;18.53;;;;;;;-2.00;76.30;98665.41;1752438;81;21324;-58
2021/01/31 18:18:03;;;;;;;36.57;18.97;;;;;;;-1.99;76.43;98661.85;1719978;82;21191;-58
2021/01/31 18:20:32;;;;;;;34.97;18.57;;;;;;;-1.98;76.64;98660.05;1760127;81;21120;-62
2021/01/31 18:23:02;;;;;;;40.67;19.40;;;;;;;-1.98;76.77;98668.83;1749841;80;21168;-59
2021/01/31 18:25:31;;;;;;;43.53;20.47;;;;;;;-2.00;76.86;98668.50;1754371;80;21661;-59
2021/01/31 18:28:01;;;;;;;41.73;20.90;;;;;;;-1.99;77.06;98672.41;1762554;80;21619;-56
2021/01/31 18:30:31;;;;;;;39.47;20.63;;;;;;;-1.97;77.20;98678.94;1761928;80;21297;-61
2021/01/31 18:33:00;;;;;;;39.60;20.27;;;;;;;-1.96;77.27;98676.66;1759077;80;21166;-61
2021/01/31 18:35:28;;;;;;;41.23;20.57;;;;;;;-1.98;77.48;98673.25;1757127;80;21124;-59
2021/01/31 18:37:57;;;;;;;38.87;21.70;;;;;;;-2.00;77.56;98673.33;1766765;81;21940;-61
2021/01/31 18:40:25;;;;;;;42.83;21.13;;;;;;;-2.01;77.79;98678.69;1762032;80;21390;-62
2021/01/31 18:42:57;;;;;;;36.70;17.57;;;;;;;-2.00;77.96;98674.65;1755126;80;21159;-60
2021/01/31 18:45:23;;;;;;;40.30;21.07;;;;;;;-1.99;78.00;98682.97;1762834;80;21113;-59
2021/01/31 18:47:51;;;;;;;43.33;20.80;;;;;;;-2.02;78.13;98676.51;1761276;80;21166;-61
2021/01/31 18:50:24;;;;;;;41.53;21.27;;;;;;;-2.03;78.24;98677.42;1760003;80;21269;-61
2021/01/31 18:52:52;;;;;;;39.97;20.87;;;;;;;-2.04;78.24;98684.97;1755724;80;21131;-60
2021/01/31 18:59:03;;;;;;;44.80;22.33;;;;;;;-2.01;78.52;98676.88;1761219;78;22911;-62
2021/01/31 19:01:40;;;;;;;52.23;25.30;;;;;;;-2.13;78.65;98679.25;1732368;82;21171;-62
2021/01/31 19:04:08;;;;;;;52.53;24.63;;;;;;;-2.12;78.85;98677.88;1726776;81;21163;-59
2021/01/31 19:06:37;;;;;;;57.40;26.27;;;;;;;-2.10;78.78;98675.16;1731363;82;21139;-59
2021/01/31 19:09:05;;;;;;;57.77;26.70;;;;;;;-2.15;78.84;98675.37;1701224;82;21410;-61
2021/01/31 19:11:33;;;;;;;59.93;26.70;;;;;;;-2.17;78.93;98681.19;1732203;80;21303;-59
2021/01/31 19:14:01;;;;;;;66.13;28.43;;;;;;;-2.21;79.03;98682.26;1727579;82;21580;-64
2021/01/31 19:16:29;;;;;;;57.30;27.27;;;;;;;-2.25;79.18;98675.87;1736265;82;21149;-63
2021/01/31 19:18:57;;;;;;;60.57;27.93;;;;;;;-2.28;79.35;98679.50;1734189;82;21614;-62
2021/01/31 19:21:25;;;;;;;66.77;29.87;;;;;;;-2.23;79.49;98683.25;1737901;82;21178;-60
2021/01/31 19:23:54;;;;;;;63.53;28.80;;;;;;;-2.21;79.58;98690.63;1731414;82;21580;-59
2021/01/31 19:26:22;;;;;;;62.33;29.60;;;;;;;-2.19;79.66;98688.32;1738510;82;21183;-59
2021/01/31 19:28:51;;;;;;;60.50;29.10;;;;;;;-2.16;79.70;98690.80;1732545;82;21163;-59
2021/01/31 19:31:19;;;;;;;57.53;27.63;;;;;;;-2.13;79.71;98691.98;1710924;82;21202;-60
2021/01/31 19:33:48;;;;;;;62.63;28.77;;;;;;;-2.10;79.73;98695.82;1735471;82;21162;-57
2021/01/31 19:36:16;;;;;;;53.00;25.70;;;;;;;-2.09;79.79;98700.61;1731333;82;21178;-59
2021/01/31 19:38:44;;;;;;;52.63;25.73;;;;;;;-2.04;79.77;98702.12;1734660;82;21637;-60
2021/01/31 19:41:12;;;;;;;53.20;26.10;;;;;;;-2.01;79.74;98700.64;1727549;82;21195;-58
2021/01/31 19:43:40;;;;;;;49.47;25.17;;;;;;;-2.02;79.75;98701.59;1741628;82;21170;-58
2021/01/31 19:46:08;;;;;;;53.87;26.37;;;;;;;-1.99;79.69;98712.02;1735167;82;21139;-58
2021/01/31 19:48:36;;;;;;;55.77;26.37;;;;;;;-2.00;79.70;98710.29;1726915;82;21166;-59
2021/01/31 19:51:05;;;;;;;51.37;25.17;;;;;;;-1.97;79.71;98710.61;1703269;82;21323;-60
2021/01/31 19:53:33;;;;;;;57.20;28.20;;;;;;;-1.97;79.69;98707.52;1736880;82;21183;-57
2021/01/31 19:56:01;;;;;;;59.07;26.90;;;;;;;-1.96;79.69;98710.98;1740071;82;21198;-59
2021/01/31 19:58:29;;;;;;;58.53;28.47;;;;;;;-1.93;79.74;98707.77;1724486;82;21163;-58
2021/01/31 20:00:57;;;;;;;64.17;30.30;;;;;;;-1.96;79.67;98710.53;1717781;79;21611;-64
2021/01/31 20:03:25;;;;;;;58.10;29.33;;;;;;;-1.90;79.71;98716.84;1727181;81;21200;-66
2021/01/31 20:05:55;;;;;;;59.17;26.83;;;;;;;-1.89;79.63;98717.25;1666988;84;21633;-65
2021/01/31 20:08:23;;;;;;;57.80;27.67;;;;;;;-1.90;79.60;98720.80;1740656;81;21193;-65
2021/01/31 20:10:54;;;;;;;62.63;30.83;;;;;;;-1.92;79.56;98718.70;1724189;81;21747;-67
2021/01/31 20:13:22;;;;;;;55.87;25.13;;;;;;;-1.90;79.58;98714.20;1739647;81;21364;-65
2021/01/31 20:15:51;;;;;;;55.97;28.00;;;;;;;-1.89;79.49;98715.93;1725685;81;21135;-65
2021/01/31 20:18:22;;;;;;;48.63;24.83;;;;;;;-1.93;79.55;98710.86;1728377;81;21544;-61
2021/01/31 20:21:00;;;;;;;50.07;24.73;;;;;;;-1.91;79.63;98707.22;1722630;81;21177;-70
2021/01/31 20:23:30;;;;;;;52.07;24.80;;;;;;;-1.85;79.54;98708.70;1677829;84;21207;-68
2021/01/31 20:25:58;;;;;;;50.83;25.47;;;;;;;-1.86;79.50;98709.20;1731728;81;21119;-61
2021/01/31 20:28:26;;;;;;;51.90;25.67;;;;;;;-1.78;79.47;98711.00;1696380;83;21280;-61
2021/01/31 20:30:54;;;;;;;48.47;24.17;;;;;;;-1.74;79.27;98715.66;1673420;84;21251;-60
2021/01/31 20:33:26;;;;;;;48.03;25.47;;;;;;;-1.74;79.16;98715.20;1687342;84;21243;-61
2021/01/31 20:35:53;;;;;;;48.30;25.03;;;;;;;-1.75;79.07;98717.44;1736995;81;21133;-60
2021/01/31 20:38:23;;;;;;;50.17;25.53;;;;;;;-1.75;78.94;98710.00;1729781;81;21228;-60
2021/01/31 20:40:52;;;;;;;53.57;26.57;;;;;;;-1.80;78.93;98708.90;1739983;81;21188;-60
2021/01/31 20:43:20;;;;;;;48.43;26.57;;;;;;;-1.79;79.03;98712.40;1727729;81;21201;-59
2021/01/31 20:45:49;;;;;;;58.47;27.60;;;;;;;-1.77;79.03;98708.73;1720165;81;21173;-60
2021/01/31 20:48:21;;;;;;;53.17;27.30;;;;;;;-1.85;79.03;98709.57;1695622;84;21150;-61
2021/01/31 20:50:50;;;;;;;48.13;25.13;;;;;;;-1.86;79.12;98711.84;1710731;82;21886;-60
2021/01/31 20:53:19;;;;;;;52.50;26.37;;;;;;;-1.85;79.03;98713.98;1716828;81;21217;-61
2021/01/31 20:55:47;;;;;;;47.80;24.63;;;;;;;-1.84;79.01;98715.72;1738323;81;21202;-58
2021/01/31 20:58:16;;;;;;;49.87;25.70;;;;;;;-1.84;78.98;98715.26;1677713;82;21328;-61
2021/01/31 21:00:44;;;;;;;55.80;27.67;;;;;;;-1.85;78.96;98713.53;1757253;81;21174;-59
2021/01/31 21:03:12;;;;;;;51.07;25.87;;;;;;;-1.84;79.01;98721.00;1739639;81;21182;-64